sensor_id;sensor_type;location;lat;lon;timestamp;P1;durP1;ratioP1;P2;durP2;ratioP2
38901;SDS011;24661;53.566;9.910;2023-02-28T00:01:27;4.80;;;1.60;;
38901;SDS011;24661;53.566;9.910;2023-02-28T00:03:53;3.70;;;1.67;;
38901;SDS011;24661;53.566;9.910;2023-02-28T00:06:18;3.63;;;1.47;;
38901;SDS011;24661;53.566;9.910;2023-02-28T00:08:46;3.10;;;1.90;;
38901;SDS011;24661;53.566;9.910;2023-02-28T00:11:13;4.10;;;1.80;;
38901;SDS011;24661;53.566;9.910;2023-02-28T00:13:41;3.77;;;1.17;;
38901;SDS011;24661;53.566;9.910;2023-02-28T00:16:14;4.10;;;1.43;;
38901;SDS011;24661;53.566;9.910;2023-02-28T00:18:42;3.70;;;1.67;;
38901;SDS011;24661;53.566;9.910;2023-02-28T00:21:10;3.17;;;1.77;;
38901;SDS011;24661;53.566;9.910;2023-02-28T00:23:36;2.50;;;1.23;;
38901;SDS011;24661;53.566;9.910;2023-02-28T00:26:01;6.10;;;1.70;;
38901;SDS011;24661;53.566;9.910;2023-02-28T00:28:28;1.90;;;1.33;;
38901;SDS011;24661;53.566;9.910;2023-02-28T00:30:54;4.00;;;1.57;;
38901;SDS011;24661;53.566;9.910;2023-02-28T00:33:20;4.93;;;2.10;;
38901;SDS011;24661;53.566;9.910;2023-02-28T00:35:46;5.13;;;1.73;;
38901;SDS011;24661;53.566;9.910;2023-02-28T00:38:12;3.83;;;1.40;;
38901;SDS011;24661;53.566;9.910;2023-02-28T00:40:38;4.53;;;1.70;;
38901;SDS011;24661;53.566;9.910;2023-02-28T00:43:05;3.77;;;1.80;;
38901;SDS011;24661;53.566;9.910;2023-02-28T00:45:30;6.53;;;1.93;;
38901;SDS011;24661;53.566;9.910;2023-02-28T00:47:56;6.27;;;2.00;;
38901;SDS011;24661;53.566;9.910;2023-02-28T00:50:22;2.80;;;1.33;;
38901;SDS011;24661;53.566;9.910;2023-02-28T00:52:48;3.40;;;1.43;;
38901;SDS011;24661;53.566;9.910;2023-02-28T00:55:14;8.13;;;2.27;;
38901;SDS011;24661;53.566;9.910;2023-02-28T00:57:39;7.10;;;2.00;;
38901;SDS011;24661;53.566;9.910;2023-02-28T01:00:05;4.23;;;1.67;;
38901;SDS011;24661;53.566;9.910;2023-02-28T01:02:32;7.70;;;1.83;;
38901;SDS011;24661;53.566;9.910;2023-02-28T01:04:57;6.23;;;2.70;;
38901;SDS011;24661;53.566;9.910;2023-02-28T01:07:23;7.00;;;1.73;;
38901;SDS011;24661;53.566;9.910;2023-02-28T01:09:49;4.00;;;2.07;;
38901;SDS011;24661;53.566;9.910;2023-02-28T01:12:14;8.00;;;2.40;;
38901;SDS011;24661;53.566;9.910;2023-02-28T01:14:41;8.73;;;2.80;;
38901;SDS011;24661;53.566;9.910;2023-02-28T01:17:07;7.60;;;2.90;;
38901;SDS011;24661;53.566;9.910;2023-02-28T01:19:33;6.77;;;2.33;;
38901;SDS011;24661;53.566;9.910;2023-02-28T01:22:01;9.30;;;2.77;;
38901;SDS011;24661;53.566;9.910;2023-02-28T01:24:28;7.23;;;2.07;;
38901;SDS011;24661;53.566;9.910;2023-02-28T01:26:53;5.90;;;1.70;;
38901;SDS011;24661;53.566;9.910;2023-02-28T01:29:19;4.63;;;2.47;;
38901;SDS011;24661;53.566;9.910;2023-02-28T01:31:45;4.67;;;1.97;;
38901;SDS011;24661;53.566;9.910;2023-02-28T01:34:10;5.43;;;1.83;;
38901;SDS011;24661;53.566;9.910;2023-02-28T01:36:36;3.57;;;1.83;;
38901;SDS011;24661;53.566;9.910;2023-02-28T01:39:01;7.27;;;2.30;;
38901;SDS011;24661;53.566;9.910;2023-02-28T01:41:28;12.37;;;3.53;;
38901;SDS011;24661;53.566;9.910;2023-02-28T01:46:32;5.83;;;2.60;;
38901;SDS011;24661;53.566;9.910;2023-02-28T01:49:04;4.90;;;2.03;;
38901;SDS011;24661;53.566;9.910;2023-02-28T01:54:02;7.83;;;1.73;;
38901;SDS011;24661;53.566;9.910;2023-02-28T01:56:38;7.83;;;2.00;;
38901;SDS011;24661;53.566;9.910;2023-02-28T01:59:07;4.00;;;1.80;;
38901;SDS011;24661;53.566;9.910;2023-02-28T02:01:33;8.67;;;1.73;;
38901;SDS011;24661;53.566;9.910;2023-02-28T02:03:59;4.73;;;2.17;;
38901;SDS011;24661;53.566;9.910;2023-02-28T02:06:33;6.60;;;2.50;;
38901;SDS011;24661;53.566;9.910;2023-02-28T02:09:02;8.57;;;2.17;;
38901;SDS011;24661;53.566;9.910;2023-02-28T02:11:28;3.53;;;2.07;;
38901;SDS011;24661;53.566;9.910;2023-02-28T02:17:11;3.03;;;2.00;;
38901;SDS011;24661;53.566;9.910;2023-02-28T02:26:32;5.03;;;1.90;;
38901;SDS011;24661;53.566;9.910;2023-02-28T02:29:38;3.87;;;2.10;;
38901;SDS011;24661;53.566;9.910;2023-02-28T02:35:19;4.37;;;2.20;;
38901;SDS011;24661;53.566;9.910;2023-02-28T02:46:19;5.43;;;2.20;;
38901;SDS011;24661;53.566;9.910;2023-02-28T02:48:48;6.10;;;2.53;;
38901;SDS011;24661;53.566;9.910;2023-02-28T02:51:18;6.40;;;2.43;;
38901;SDS011;24661;53.566;9.910;2023-02-28T02:53:48;8.40;;;2.20;;
38901;SDS011;24661;53.566;9.910;2023-02-28T02:56:23;4.93;;;2.13;;
38901;SDS011;24661;53.566;9.910;2023-02-28T02:58:52;4.50;;;1.90;;
38901;SDS011;24661;53.566;9.910;2023-02-28T03:01:24;2.67;;;1.60;;
38901;SDS011;24661;53.566;9.910;2023-02-28T03:03:55;7.80;;;2.23;;
38901;SDS011;24661;53.566;9.910;2023-02-28T03:06:26;7.50;;;4.00;;
38901;SDS011;24661;53.566;9.910;2023-02-28T03:08:52;5.60;;;2.80;;
38901;SDS011;24661;53.566;9.910;2023-02-28T03:11:18;5.93;;;2.37;;
38901;SDS011;24661;53.566;9.910;2023-02-28T03:13:52;4.60;;;2.33;;
38901;SDS011;24661;53.566;9.910;2023-02-28T03:21:43;8.27;;;2.77;;
38901;SDS011;24661;53.566;9.910;2023-02-28T03:35:53;5.87;;;2.83;;
38901;SDS011;24661;53.566;9.910;2023-02-28T03:38:27;7.47;;;2.83;;
38901;SDS011;24661;53.566;9.910;2023-02-28T03:41:00;11.67;;;3.60;;
38901;SDS011;24661;53.566;9.910;2023-02-28T03:43:34;6.27;;;2.97;;
38901;SDS011;24661;53.566;9.910;2023-02-28T03:46:05;5.73;;;3.13;;
38901;SDS011;24661;53.566;9.910;2023-02-28T03:51:11;8.80;;;2.70;;
38901;SDS011;24661;53.566;9.910;2023-02-28T03:53:42;7.03;;;3.20;;
38901;SDS011;24661;53.566;9.910;2023-02-28T03:56:19;3.80;;;3.00;;
38901;SDS011;24661;53.566;9.910;2023-02-28T04:01:23;6.70;;;3.03;;
38901;SDS011;24661;53.566;9.910;2023-02-28T04:03:52;8.70;;;3.10;;
38901;SDS011;24661;53.566;9.910;2023-02-28T04:06:19;5.90;;;3.33;;
38901;SDS011;24661;53.566;9.910;2023-02-28T04:08:47;7.20;;;2.73;;
38901;SDS011;24661;53.566;9.910;2023-02-28T04:11:16;7.00;;;3.20;;
38901;SDS011;24661;53.566;9.910;2023-02-28T04:13:59;6.57;;;3.03;;
38901;SDS011;24661;53.566;9.910;2023-02-28T04:16:25;8.40;;;3.60;;
38901;SDS011;24661;53.566;9.910;2023-02-28T04:18:51;7.63;;;3.43;;
38901;SDS011;24661;53.566;9.910;2023-02-28T04:21:18;10.30;;;3.17;;
38901;SDS011;24661;53.566;9.910;2023-02-28T04:23:47;9.03;;;3.47;;
38901;SDS011;24661;53.566;9.910;2023-02-28T04:26:12;6.37;;;3.20;;
38901;SDS011;24661;53.566;9.910;2023-02-28T04:28:38;5.40;;;3.33;;
38901;SDS011;24661;53.566;9.910;2023-02-28T04:31:04;6.47;;;2.93;;
38901;SDS011;24661;53.566;9.910;2023-02-28T04:33:30;7.10;;;3.63;;
38901;SDS011;24661;53.566;9.910;2023-02-28T04:35:57;5.03;;;2.90;;
38901;SDS011;24661;53.566;9.910;2023-02-28T04:38:24;11.97;;;3.23;;
38901;SDS011;24661;53.566;9.910;2023-02-28T04:40:50;10.93;;;3.73;;
38901;SDS011;24661;53.566;9.910;2023-02-28T04:43:15;7.20;;;3.40;;
38901;SDS011;24661;53.566;9.910;2023-02-28T04:45:41;11.67;;;3.50;;
38901;SDS011;24661;53.566;9.910;2023-02-28T04:48:06;7.60;;;3.03;;
38901;SDS011;24661;53.566;9.910;2023-02-28T04:50:32;7.57;;;3.50;;
38901;SDS011;24661;53.566;9.910;2023-02-28T04:52:57;6.50;;;3.77;;
38901;SDS011;24661;53.566;9.910;2023-02-28T04:55:23;5.20;;;3.40;;
38901;SDS011;24661;53.566;9.910;2023-02-28T04:57:49;6.77;;;3.60;;
38901;SDS011;24661;53.566;9.910;2023-02-28T05:00:14;8.33;;;3.80;;
38901;SDS011;24661;53.566;9.910;2023-02-28T05:02:41;7.50;;;3.47;;
38901;SDS011;24661;53.566;9.910;2023-02-28T05:05:07;8.37;;;3.37;;
38901;SDS011;24661;53.566;9.910;2023-02-28T05:07:33;7.30;;;3.70;;
38901;SDS011;24661;53.566;9.910;2023-02-28T05:09:59;6.93;;;3.47;;
38901;SDS011;24661;53.566;9.910;2023-02-28T05:12:24;9.60;;;3.23;;
38901;SDS011;24661;53.566;9.910;2023-02-28T05:14:50;7.53;;;4.37;;
38901;SDS011;24661;53.566;9.910;2023-02-28T05:17:15;8.00;;;4.10;;
38901;SDS011;24661;53.566;9.910;2023-02-28T05:19:41;9.03;;;4.00;;
38901;SDS011;24661;53.566;9.910;2023-02-28T05:22:12;8.53;;;5.13;;
38901;SDS011;24661;53.566;9.910;2023-02-28T05:24:38;7.37;;;4.50;;
38901;SDS011;24661;53.566;9.910;2023-02-28T05:27:04;9.87;;;4.33;;
38901;SDS011;24661;53.566;9.910;2023-02-28T05:29:29;12.77;;;4.23;;
38901;SDS011;24661;53.566;9.910;2023-02-28T05:31:55;7.30;;;3.47;;
38901;SDS011;24661;53.566;9.910;2023-02-28T05:34:20;6.80;;;4.23;;
38901;SDS011;24661;53.566;9.910;2023-02-28T05:36:47;8.73;;;4.17;;
38901;SDS011;24661;53.566;9.910;2023-02-28T05:39:13;8.87;;;4.20;;
38901;SDS011;24661;53.566;9.910;2023-02-28T05:42:36;8.03;;;4.17;;
38901;SDS011;24661;53.566;9.910;2023-02-28T05:45:03;8.43;;;4.47;;
38901;SDS011;24661;53.566;9.910;2023-02-28T05:47:30;7.70;;;4.40;;
38901;SDS011;24661;53.566;9.910;2023-02-28T05:49:56;8.03;;;4.13;;
38901;SDS011;24661;53.566;9.910;2023-02-28T05:52:21;11.83;;;4.37;;
38901;SDS011;24661;53.566;9.910;2023-02-28T05:54:47;5.70;;;3.90;;
38901;SDS011;24661;53.566;9.910;2023-02-28T05:57:13;12.33;;;4.67;;
38901;SDS011;24661;53.566;9.910;2023-02-28T05:59:38;11.30;;;4.23;;
38901;SDS011;24661;53.566;9.910;2023-02-28T06:02:05;13.93;;;4.57;;
38901;SDS011;24661;53.566;9.910;2023-02-28T06:04:31;11.23;;;4.60;;
38901;SDS011;24661;53.566;9.910;2023-02-28T06:06:57;11.20;;;5.20;;
38901;SDS011;24661;53.566;9.910;2023-02-28T06:09:23;9.63;;;4.70;;
38901;SDS011;24661;53.566;9.910;2023-02-28T06:11:50;10.43;;;5.60;;
38901;SDS011;24661;53.566;9.910;2023-02-28T06:14:16;10.60;;;4.93;;
38901;SDS011;24661;53.566;9.910;2023-02-28T06:16:43;10.90;;;4.60;;
38901;SDS011;24661;53.566;9.910;2023-02-28T06:19:09;13.77;;;5.13;;
38901;SDS011;24661;53.566;9.910;2023-02-28T06:21:35;10.57;;;5.17;;
38901;SDS011;24661;53.566;9.910;2023-02-28T06:24:01;10.17;;;4.63;;
38901;SDS011;24661;53.566;9.910;2023-02-28T06:26:27;12.43;;;4.73;;
38901;SDS011;24661;53.566;9.910;2023-02-28T06:28:53;10.03;;;5.20;;
38901;SDS011;24661;53.566;9.910;2023-02-28T06:31:20;9.67;;;5.33;;
38901;SDS011;24661;53.566;9.910;2023-02-28T06:33:46;8.67;;;4.53;;
38901;SDS011;24661;53.566;9.910;2023-02-28T06:36:13;8.13;;;4.90;;
38901;SDS011;24661;53.566;9.910;2023-02-28T06:38:39;11.30;;;5.20;;
38901;SDS011;24661;53.566;9.910;2023-02-28T06:41:06;9.30;;;5.77;;
38901;SDS011;24661;53.566;9.910;2023-02-28T06:43:37;8.90;;;4.97;;
38901;SDS011;24661;53.566;9.910;2023-02-28T06:46:06;9.23;;;4.20;;
38901;SDS011;24661;53.566;9.910;2023-02-28T06:48:34;12.57;;;5.80;;
38901;SDS011;24661;53.566;9.910;2023-02-28T06:51:03;13.73;;;5.23;;
38901;SDS011;24661;53.566;9.910;2023-02-28T06:53:33;8.23;;;5.10;;
38901;SDS011;24661;53.566;9.910;2023-02-28T06:55:59;10.87;;;5.93;;
38901;SDS011;24661;53.566;9.910;2023-02-28T06:58:30;11.10;;;5.23;;
38901;SDS011;24661;53.566;9.910;2023-02-28T07:00:56;9.70;;;5.20;;
38901;SDS011;24661;53.566;9.910;2023-02-28T07:03:21;8.90;;;5.40;;
38901;SDS011;24661;53.566;9.910;2023-02-28T07:05:48;11.67;;;5.33;;
38901;SDS011;24661;53.566;9.910;2023-02-28T07:08:13;11.40;;;5.40;;
38901;SDS011;24661;53.566;9.910;2023-02-28T07:10:39;11.93;;;6.33;;
38901;SDS011;24661;53.566;9.910;2023-02-28T07:13:05;12.83;;;5.93;;
38901;SDS011;24661;53.566;9.910;2023-02-28T07:15:32;16.70;;;6.27;;
38901;SDS011;24661;53.566;9.910;2023-02-28T07:17:58;10.77;;;6.20;;
38901;SDS011;24661;53.566;9.910;2023-02-28T07:20:24;10.83;;;5.47;;
38901;SDS011;24661;53.566;9.910;2023-02-28T07:22:50;13.37;;;6.57;;
38901;SDS011;24661;53.566;9.910;2023-02-28T07:25:24;12.10;;;6.20;;
38901;SDS011;24661;53.566;9.910;2023-02-28T07:27:52;8.47;;;5.53;;
38901;SDS011;24661;53.566;9.910;2023-02-28T07:30:19;18.37;;;6.37;;
38901;SDS011;24661;53.566;9.910;2023-02-28T07:32:44;8.67;;;5.63;;
38901;SDS011;24661;53.566;9.910;2023-02-28T07:35:11;12.23;;;5.87;;
38901;SDS011;24661;53.566;9.910;2023-02-28T07:37:36;10.40;;;5.00;;
38901;SDS011;24661;53.566;9.910;2023-02-28T07:40:07;12.40;;;5.80;;
38901;SDS011;24661;53.566;9.910;2023-02-28T07:42:34;10.17;;;4.87;;
38901;SDS011;24661;53.566;9.910;2023-02-28T07:45:01;8.37;;;4.43;;
38901;SDS011;24661;53.566;9.910;2023-02-28T07:47:28;11.27;;;4.90;;
38901;SDS011;24661;53.566;9.910;2023-02-28T07:49:55;8.87;;;4.07;;
38901;SDS011;24661;53.566;9.910;2023-02-28T07:52:21;8.23;;;3.37;;
38901;SDS011;24661;53.566;9.910;2023-02-28T07:54:48;6.53;;;4.53;;
38901;SDS011;24661;53.566;9.910;2023-02-28T07:57:14;8.67;;;4.03;;
38901;SDS011;24661;53.566;9.910;2023-02-28T07:59:41;6.87;;;3.10;;
38901;SDS011;24661;53.566;9.910;2023-02-28T08:02:13;5.73;;;2.97;;
38901;SDS011;24661;53.566;9.910;2023-02-28T08:04:40;10.73;;;3.47;;
38901;SDS011;24661;53.566;9.910;2023-02-28T08:07:06;4.70;;;2.80;;
38901;SDS011;24661;53.566;9.910;2023-02-28T08:09:32;5.40;;;2.77;;
38901;SDS011;24661;53.566;9.910;2023-02-28T08:11:59;10.53;;;3.10;;
38901;SDS011;24661;53.566;9.910;2023-02-28T08:14:24;6.30;;;2.87;;
38901;SDS011;24661;53.566;9.910;2023-02-28T08:16:50;8.80;;;3.17;;
38901;SDS011;24661;53.566;9.910;2023-02-28T08:19:16;8.37;;;3.07;;
38901;SDS011;24661;53.566;9.910;2023-02-28T08:21:42;5.50;;;2.17;;
38901;SDS011;24661;53.566;9.910;2023-02-28T08:24:07;6.03;;;2.20;;
38901;SDS011;24661;53.566;9.910;2023-02-28T08:26:33;4.87;;;2.17;;
38901;SDS011;24661;53.566;9.910;2023-02-28T08:28:59;7.10;;;2.20;;
38901;SDS011;24661;53.566;9.910;2023-02-28T08:31:24;4.77;;;2.30;;
38901;SDS011;24661;53.566;9.910;2023-02-28T08:33:50;3.37;;;1.90;;
38901;SDS011;24661;53.566;9.910;2023-02-28T08:36:18;4.07;;;1.90;;
38901;SDS011;24661;53.566;9.910;2023-02-28T08:38:44;4.80;;;1.90;;
38901;SDS011;24661;53.566;9.910;2023-02-28T08:41:11;4.20;;;1.97;;
38901;SDS011;24661;53.566;9.910;2023-02-28T08:43:37;6.33;;;1.77;;
38901;SDS011;24661;53.566;9.910;2023-02-28T08:46:04;3.80;;;1.83;;
38901;SDS011;24661;53.566;9.910;2023-02-28T08:48:31;2.47;;;1.47;;
38901;SDS011;24661;53.566;9.910;2023-02-28T08:53:36;2.20;;;1.50;;
38901;SDS011;24661;53.566;9.910;2023-02-28T08:56:04;2.43;;;1.47;;
38901;SDS011;24661;53.566;9.910;2023-02-28T08:58:31;4.10;;;1.93;;
38901;SDS011;24661;53.566;9.910;2023-02-28T09:00:57;5.47;;;1.87;;
38901;SDS011;24661;53.566;9.910;2023-02-28T09:03:22;5.07;;;1.37;;
38901;SDS011;24661;53.566;9.910;2023-02-28T09:05:53;3.17;;;1.30;;
38901;SDS011;24661;53.566;9.910;2023-02-28T09:08:21;3.43;;;1.20;;
38901;SDS011;24661;53.566;9.910;2023-02-28T09:10:47;1.07;;;0.83;;
38901;SDS011;24661;53.566;9.910;2023-02-28T09:13:13;3.13;;;1.33;;
38901;SDS011;24661;53.566;9.910;2023-02-28T09:15:38;3.47;;;1.10;;
38901;SDS011;24661;53.566;9.910;2023-02-28T09:18:04;2.40;;;1.10;;
38901;SDS011;24661;53.566;9.910;2023-02-28T09:20:30;3.23;;;1.00;;
38901;SDS011;24661;53.566;9.910;2023-02-28T09:22:55;1.07;;;0.90;;
38901;SDS011;24661;53.566;9.910;2023-02-28T09:25:21;1.53;;;0.80;;
38901;SDS011;24661;53.566;9.910;2023-02-28T09:27:47;3.70;;;1.10;;
38901;SDS011;24661;53.566;9.910;2023-02-28T09:30:13;2.23;;;1.17;;
38901;SDS011;24661;53.566;9.910;2023-02-28T09:32:39;1.97;;;1.33;;
38901;SDS011;24661;53.566;9.910;2023-02-28T09:35:05;2.80;;;1.00;;
38901;SDS011;24661;53.566;9.910;2023-02-28T09:37:31;3.37;;;1.20;;
38901;SDS011;24661;53.566;9.910;2023-02-28T09:39:57;5.33;;;1.63;;
38901;SDS011;24661;53.566;9.910;2023-02-28T09:42:32;1.00;;;0.90;;
38901;SDS011;24661;53.566;9.910;2023-02-28T09:45:00;0.87;;;0.70;;
38901;SDS011;24661;53.566;9.910;2023-02-28T09:50:11;2.20;;;0.70;;
38901;SDS011;24661;53.566;9.910;2023-02-28T09:52:48;5.33;;;1.20;;
38901;SDS011;24661;53.566;9.910;2023-02-28T09:57:43;1.67;;;1.07;;
38901;SDS011;24661;53.566;9.910;2023-02-28T10:00:30;4.10;;;1.20;;
38901;SDS011;24661;53.566;9.910;2023-02-28T10:05:59;2.33;;;0.90;;
38901;SDS011;24661;53.566;9.910;2023-02-28T10:08:35;1.57;;;0.70;;
38901;SDS011;24661;53.566;9.910;2023-02-28T10:11:12;3.03;;;1.07;;
38901;SDS011;24661;53.566;9.910;2023-02-28T10:13:58;2.27;;;1.00;;
38901;SDS011;24661;53.566;9.910;2023-02-28T10:16:34;5.33;;;1.40;;
38901;SDS011;24661;53.566;9.910;2023-02-28T10:19:11;1.50;;;0.90;;
38901;SDS011;24661;53.566;9.910;2023-02-28T10:21:59;2.43;;;0.83;;
38901;SDS011;24661;53.566;9.910;2023-02-28T10:24:41;2.13;;;0.97;;
38901;SDS011;24661;53.566;9.910;2023-02-28T10:27:31;3.00;;;1.33;;
38901;SDS011;24661;53.566;9.910;2023-02-28T10:29:58;1.93;;;0.97;;
38901;SDS011;24661;53.566;9.910;2023-02-28T10:32:29;2.83;;;1.43;;
38901;SDS011;24661;53.566;9.910;2023-02-28T10:35:07;1.17;;;1.00;;
38901;SDS011;24661;53.566;9.910;2023-02-28T10:37:44;1.77;;;1.13;;
38901;SDS011;24661;53.566;9.910;2023-02-28T10:42:54;1.17;;;1.00;;
38901;SDS011;24661;53.566;9.910;2023-02-28T10:45:21;2.53;;;0.93;;
38901;SDS011;24661;53.566;9.910;2023-02-28T10:47:52;4.33;;;1.20;;
38901;SDS011;24661;53.566;9.910;2023-02-28T10:50:29;2.33;;;1.33;;
38901;SDS011;24661;53.566;9.910;2023-02-28T10:53:03;1.47;;;0.87;;
38901;SDS011;24661;53.566;9.910;2023-02-28T10:55:40;1.20;;;1.00;;
38901;SDS011;24661;53.566;9.910;2023-02-28T10:58:23;1.17;;;0.97;;
38901;SDS011;24661;53.566;9.910;2023-02-28T11:00:50;1.83;;;1.00;;
38901;SDS011;24661;53.566;9.910;2023-02-28T11:03:51;3.13;;;1.43;;
38901;SDS011;24661;53.566;9.910;2023-02-28T11:06:17;3.97;;;1.10;;
38901;SDS011;24661;53.566;9.910;2023-02-28T11:08:45;2.27;;;1.20;;
38901;SDS011;24661;53.566;9.910;2023-02-28T11:11:23;1.87;;;1.00;;
38901;SDS011;24661;53.566;9.910;2023-02-28T11:13:57;1.73;;;1.27;;
38901;SDS011;24661;53.566;9.910;2023-02-28T11:16:36;4.43;;;1.40;;
38901;SDS011;24661;53.566;9.910;2023-02-28T11:19:04;1.73;;;1.20;;
38901;SDS011;24661;53.566;9.910;2023-02-28T11:21:41;1.40;;;1.13;;
38901;SDS011;24661;53.566;9.910;2023-02-28T11:24:24;1.60;;;1.10;;
38901;SDS011;24661;53.566;9.910;2023-02-28T11:26:58;1.57;;;1.13;;
38901;SDS011;24661;53.566;9.910;2023-02-28T11:29:26;2.67;;;1.17;;
38901;SDS011;24661;53.566;9.910;2023-02-28T11:34:44;2.20;;;1.80;;
38901;SDS011;24661;53.566;9.910;2023-02-28T11:37:12;3.37;;;1.40;;
38901;SDS011;24661;53.566;9.910;2023-02-28T11:39:43;4.27;;;1.50;;
38901;SDS011;24661;53.566;9.910;2023-02-28T11:45:14;4.27;;;1.30;;
38901;SDS011;24661;53.566;9.910;2023-02-28T11:47:47;2.57;;;1.40;;
38901;SDS011;24661;53.566;9.910;2023-02-28T11:53:10;3.67;;;1.30;;
38901;SDS011;24661;53.566;9.910;2023-02-28T11:55:45;4.33;;;1.53;;
38901;SDS011;24661;53.566;9.910;2023-02-28T11:58:27;2.93;;;1.13;;
38901;SDS011;24661;53.566;9.910;2023-02-28T12:10:36;4.20;;;1.50;;
38901;SDS011;24661;53.566;9.910;2023-02-28T12:12:55;5.33;;;1.77;;
38901;SDS011;24661;53.566;9.910;2023-02-28T12:24:02;3.17;;;1.40;;
38901;SDS011;24661;53.566;9.910;2023-02-28T12:26:50;2.77;;;1.67;;
38901;SDS011;24661;53.566;9.910;2023-02-28T12:29:34;8.23;;;3.57;;
38901;SDS011;24661;53.566;9.910;2023-02-28T12:34:41;7.03;;;1.30;;
38901;SDS011;24661;53.566;9.910;2023-02-28T12:37:32;2.33;;;1.70;;
38901;SDS011;24661;53.566;9.910;2023-02-28T12:40:28;4.40;;;1.87;;
38901;SDS011;24661;53.566;9.910;2023-02-28T12:43:07;6.70;;;1.90;;
38901;SDS011;24661;53.566;9.910;2023-02-28T12:48:23;6.67;;;1.73;;
38901;SDS011;24661;53.566;9.910;2023-02-28T12:51:08;4.20;;;1.73;;
38901;SDS011;24661;53.566;9.910;2023-02-28T12:58:49;4.67;;;1.97;;
38901;SDS011;24661;53.566;9.910;2023-02-28T13:09:37;4.87;;;1.83;;
38901;SDS011;24661;53.566;9.910;2023-02-28T13:12:12;7.50;;;1.63;;
38901;SDS011;24661;53.566;9.910;2023-02-28T13:14:39;3.60;;;1.77;;
38901;SDS011;24661;53.566;9.910;2023-02-28T13:19:37;5.13;;;2.07;;
38901;SDS011;24661;53.566;9.910;2023-02-28T13:25:00;4.93;;;1.63;;
38901;SDS011;24661;53.566;9.910;2023-02-28T13:27:37;3.93;;;1.93;;
38901;SDS011;24661;53.566;9.910;2023-02-28T13:33:25;6.47;;;2.90;;
38901;SDS011;24661;53.566;9.910;2023-02-28T13:46:30;4.97;;;1.90;;
38901;SDS011;24661;53.566;9.910;2023-02-28T13:48:56;4.07;;;1.73;;
38901;SDS011;24661;53.566;9.910;2023-02-28T13:51:55;7.13;;;1.73;;
38901;SDS011;24661;53.566;9.910;2023-02-28T13:57:44;3.47;;;1.63;;
38901;SDS011;24661;53.566;9.910;2023-02-28T14:05:35;9.53;;;4.60;;
38901;SDS011;24661;53.566;9.910;2023-02-28T14:08:08;7.43;;;2.70;;
38901;SDS011;24661;53.566;9.910;2023-02-28T14:11:02;5.17;;;2.37;;
38901;SDS011;24661;53.566;9.910;2023-02-28T14:13:43;8.60;;;3.13;;
38901;SDS011;24661;53.566;9.910;2023-02-28T14:16:35;7.27;;;2.40;;
38901;SDS011;24661;53.566;9.910;2023-02-28T14:19:21;6.93;;;2.60;;
38901;SDS011;24661;53.566;9.910;2023-02-28T14:27:44;4.50;;;2.70;;
38901;SDS011;24661;53.566;9.910;2023-02-28T14:33:31;6.20;;;2.40;;
38901;SDS011;24661;53.566;9.910;2023-02-28T14:36:12;10.13;;;2.13;;
38901;SDS011;24661;53.566;9.910;2023-02-28T14:44:00;3.97;;;2.03;;
38901;SDS011;24661;53.566;9.910;2023-02-28T14:46:30;5.47;;;1.97;;
38901;SDS011;24661;53.566;9.910;2023-02-28T14:49:03;4.00;;;2.37;;
38901;SDS011;24661;53.566;9.910;2023-02-28T14:51:32;4.83;;;2.03;;
38901;SDS011;24661;53.566;9.910;2023-02-28T14:53:59;4.37;;;2.13;;
38901;SDS011;24661;53.566;9.910;2023-02-28T14:56:34;7.03;;;2.70;;
38901;SDS011;24661;53.566;9.910;2023-02-28T14:59:02;5.83;;;2.20;;
38901;SDS011;24661;53.566;9.910;2023-02-28T15:01:28;7.73;;;2.40;;
38901;SDS011;24661;53.566;9.910;2023-02-28T15:04:02;3.90;;;1.50;;
38901;SDS011;24661;53.566;9.910;2023-02-28T15:06:29;6.37;;;2.50;;
38901;SDS011;24661;53.566;9.910;2023-02-28T15:09:15;4.57;;;1.80;;
38901;SDS011;24661;53.566;9.910;2023-02-28T15:11:45;3.67;;;2.13;;
38901;SDS011;24661;53.566;9.910;2023-02-28T15:14:17;4.40;;;2.10;;
38901;SDS011;24661;53.566;9.910;2023-02-28T15:16:45;9.97;;;2.33;;
38901;SDS011;24661;53.566;9.910;2023-02-28T15:19:18;5.07;;;2.13;;
38901;SDS011;24661;53.566;9.910;2023-02-28T15:21:52;3.77;;;1.97;;
38901;SDS011;24661;53.566;9.910;2023-02-28T15:24:35;3.87;;;2.03;;
38901;SDS011;24661;53.566;9.910;2023-02-28T15:27:24;5.13;;;2.20;;
38901;SDS011;24661;53.566;9.910;2023-02-28T15:29:57;3.83;;;1.87;;
38901;SDS011;24661;53.566;9.910;2023-02-28T15:34:56;5.50;;;1.90;;
38901;SDS011;24661;53.566;9.910;2023-02-28T15:39:56;5.87;;;2.53;;
38901;SDS011;24661;53.566;9.910;2023-02-28T15:42:30;3.97;;;2.10;;
38901;SDS011;24661;53.566;9.910;2023-02-28T15:44:56;4.63;;;2.27;;
38901;SDS011;24661;53.566;9.910;2023-02-28T15:47:25;3.20;;;1.70;;
38901;SDS011;24661;53.566;9.910;2023-02-28T15:49:55;6.67;;;1.90;;
38901;SDS011;24661;53.566;9.910;2023-02-28T15:52:34;4.13;;;1.73;;
38901;SDS011;24661;53.566;9.910;2023-02-28T15:55:17;7.27;;;2.77;;
38901;SDS011;24661;53.566;9.910;2023-02-28T15:57:45;4.00;;;2.23;;
38901;SDS011;24661;53.566;9.910;2023-02-28T16:00:15;4.47;;;2.20;;
38901;SDS011;24661;53.566;9.910;2023-02-28T16:02:44;4.53;;;2.10;;
38901;SDS011;24661;53.566;9.910;2023-02-28T16:07:41;4.87;;;2.43;;
38901;SDS011;24661;53.566;9.910;2023-02-28T16:10:09;7.17;;;1.97;;
38901;SDS011;24661;53.566;9.910;2023-02-28T16:12:40;6.53;;;1.63;;
38901;SDS011;24661;53.566;9.910;2023-02-28T16:15:19;6.73;;;2.17;;
38901;SDS011;24661;53.566;9.910;2023-02-28T16:17:46;6.30;;;2.00;;
38901;SDS011;24661;53.566;9.910;2023-02-28T16:20:16;6.80;;;2.60;;
38901;SDS011;24661;53.566;9.910;2023-02-28T16:22:46;3.60;;;2.37;;
38901;SDS011;24661;53.566;9.910;2023-02-28T16:25:13;11.53;;;2.40;;
38901;SDS011;24661;53.566;9.910;2023-02-28T16:27:42;6.97;;;1.90;;
38901;SDS011;24661;53.566;9.910;2023-02-28T16:30:15;8.87;;;2.00;;
38901;SDS011;24661;53.566;9.910;2023-02-28T16:32:45;2.47;;;1.90;;
38901;SDS011;24661;53.566;9.910;2023-02-28T16:35:11;5.40;;;2.17;;
38901;SDS011;24661;53.566;9.910;2023-02-28T16:37:39;8.90;;;2.10;;
38901;SDS011;24661;53.566;9.910;2023-02-28T16:40:06;5.40;;;2.27;;
38901;SDS011;24661;53.566;9.910;2023-02-28T16:42:39;9.63;;;2.70;;
38901;SDS011;24661;53.566;9.910;2023-02-28T16:45:05;5.17;;;2.00;;
38901;SDS011;24661;53.566;9.910;2023-02-28T16:47:36;7.43;;;2.00;;
38901;SDS011;24661;53.566;9.910;2023-02-28T16:50:08;5.70;;;2.50;;
38901;SDS011;24661;53.566;9.910;2023-02-28T16:52:39;6.83;;;2.23;;
38901;SDS011;24661;53.566;9.910;2023-02-28T16:55:05;5.00;;;2.30;;
38901;SDS011;24661;53.566;9.910;2023-02-28T16:57:31;5.73;;;2.73;;
38901;SDS011;24661;53.566;9.910;2023-02-28T16:59:57;7.00;;;2.10;;
38901;SDS011;24661;53.566;9.910;2023-02-28T17:02:22;8.47;;;2.20;;
38901;SDS011;24661;53.566;9.910;2023-02-28T17:04:48;7.73;;;2.40;;
38901;SDS011;24661;53.566;9.910;2023-02-28T17:07:15;5.67;;;2.23;;
38901;SDS011;24661;53.566;9.910;2023-02-28T17:09:42;6.57;;;2.20;;
38901;SDS011;24661;53.566;9.910;2023-02-28T17:12:08;3.77;;;2.37;;
38901;SDS011;24661;53.566;9.910;2023-02-28T17:14:36;8.03;;;2.50;;
38901;SDS011;24661;53.566;9.910;2023-02-28T17:17:03;7.90;;;2.10;;
38901;SDS011;24661;53.566;9.910;2023-02-28T17:19:30;6.67;;;2.87;;
38901;SDS011;24661;53.566;9.910;2023-02-28T17:21:56;6.97;;;2.60;;
38901;SDS011;24661;53.566;9.910;2023-02-28T17:24:22;6.93;;;2.43;;
38901;SDS011;24661;53.566;9.910;2023-02-28T17:26:47;5.00;;;2.30;;
38901;SDS011;24661;53.566;9.910;2023-02-28T17:29:17;8.17;;;3.40;;
38901;SDS011;24661;53.566;9.910;2023-02-28T17:31:45;4.93;;;3.20;;
38901;SDS011;24661;53.566;9.910;2023-02-28T17:34:11;19.67;;;3.03;;
38901;SDS011;24661;53.566;9.910;2023-02-28T17:36:43;6.47;;;3.07;;
38901;SDS011;24661;53.566;9.910;2023-02-28T17:39:12;8.03;;;2.87;;